createdAt,value
2023-08-31T00:02:04.901Z,74.65
2023-08-31T00:04:31.725Z,74.67
2023-08-31T00:06:58.684Z,74.41
2023-08-31T00:09:25.606Z,74.12
2023-08-31T00:11:52.693Z,74.61
2023-08-31T00:14:19.737Z,74.52
2023-08-31T00:16:49.096Z,74.17
2023-08-31T00:19:16.290Z,73.65
2023-08-31T00:21:43.612Z,74.07
2023-08-31T00:24:11.317Z,73.20
2023-08-31T00:26:43.424Z,72.74
2023-08-31T00:29:11.905Z,73.04
2023-08-31T00:31:38.821Z,72.93
2023-08-31T00:34:05.623Z,72.88
2023-08-31T00:36:33.117Z,72.69
2023-08-31T00:39:00.003Z,72.88
2023-08-31T00:41:26.738Z,73.16
2023-08-31T00:43:53.700Z,72.88
2023-08-31T00:46:21.200Z,72.78
2023-08-31T00:48:48.084Z,73.60
2023-08-31T00:51:15.032Z,74.02
2023-08-31T00:53:42.294Z,73.73
2023-08-31T00:56:09.459Z,73.57
2023-08-31T00:58:36.420Z,73.67
2023-08-31T01:01:16.234Z,73.31
2023-08-31T01:03:48.701Z,73.05
2023-08-31T01:06:18.382Z,73.29
2023-08-31T01:09:09.184Z,73.50
2023-08-31T01:11:46.498Z,73.14
2023-08-31T01:14:18.164Z,73.05
2023-08-31T01:16:46.781Z,73.01
2023-08-31T01:19:31.921Z,72.77
2023-08-31T01:22:01.750Z,72.93
2023-08-31T01:24:28.912Z,72.93
2023-08-31T01:26:55.977Z,72.93
2023-08-31T01:29:22.924Z,72.63
2023-08-31T01:31:49.868Z,72.47
2023-08-31T01:34:16.802Z,72.49
2023-08-31T01:36:48.797Z,72.69
2023-08-31T01:39:23.683Z,72.67
2023-08-31T01:41:56.933Z,72.91
2023-08-31T01:44:24.631Z,72.33
2023-08-31T01:46:55.119Z,71.90
2023-08-31T01:49:24.994Z,72.30
2023-08-31T01:51:51.808Z,71.93
2023-08-31T01:54:18.621Z,71.78
2023-08-31T01:56:45.421Z,71.87
2023-08-31T01:59:12.286Z,71.48
2023-08-31T02:01:39.110Z,71.63
2023-08-31T02:04:06.455Z,71.74
2023-08-31T02:06:33.291Z,71.73
2023-08-31T02:09:00.079Z,71.59
2023-08-31T02:11:26.839Z,71.67
2023-08-31T02:13:53.653Z,71.48
2023-08-31T02:16:20.410Z,71.92
2023-08-31T02:18:47.216Z,71.39
2023-08-31T02:21:14.025Z,71.65
2023-08-31T02:23:40.760Z,71.67
2023-08-31T02:26:07.545Z,72.63
2023-08-31T02:28:34.304Z,72.92
2023-08-31T02:31:02.895Z,72.39
2023-08-31T02:33:29.636Z,73.02
2023-08-31T02:35:56.815Z,73.29
2023-08-31T02:38:24.190Z,73.18
2023-08-31T02:40:51.166Z,73.00
2023-08-31T02:43:18.010Z,72.78
2023-08-31T02:45:44.841Z,72.47
2023-08-31T02:48:11.922Z,72.26
2023-08-31T02:50:39.572Z,72.39
2023-08-31T02:53:06.624Z,72.37
2023-08-31T02:55:33.995Z,72.15
2023-08-31T02:58:00.902Z,71.99
2023-08-31T03:00:27.709Z,72.39
2023-08-31T03:02:54.746Z,72.20
2023-08-31T03:05:24.320Z,72.03
2023-08-31T03:07:51.087Z,71.73
2023-08-31T03:10:17.941Z,71.74
2023-08-31T03:12:44.803Z,71.71
2023-08-31T03:15:11.672Z,72.15
2023-08-31T03:17:38.751Z,71.97
2023-08-31T03:20:07.581Z,71.82
2023-08-31T03:22:34.745Z,72.19
2023-08-31T03:25:01.612Z,72.60
2023-08-31T03:27:28.373Z,72.01
2023-08-31T03:29:55.211Z,72.86
2023-08-31T03:32:22.057Z,72.65
2023-08-31T03:34:48.801Z,72.87
2023-08-31T03:37:15.608Z,72.38
2023-08-31T03:39:42.612Z,72.45
2023-08-31T03:42:10.202Z,73.47
2023-08-31T03:44:38.676Z,73.40
2023-08-31T03:47:05.665Z,74.07
2023-08-31T03:49:33.039Z,73.61
2023-08-31T03:52:00.512Z,74.33
2023-08-31T03:54:27.435Z,74.41
2023-08-31T03:56:54.207Z,74.78
2023-08-31T03:59:21.262Z,74.43
2023-08-31T04:01:48.102Z,74.85
2023-08-31T04:04:14.882Z,74.64
2023-08-31T04:06:41.693Z,74.99
2023-08-31T04:09:08.847Z,74.80
2023-08-31T04:11:35.662Z,74.97
2023-08-31T04:14:02.472Z,74.63
2023-08-31T04:16:29.312Z,74.70
2023-08-31T04:18:56.549Z,74.34
2023-08-31T04:21:23.352Z,74.21
2023-08-31T04:23:50.103Z,73.88
2023-08-31T04:26:18.611Z,73.75
2023-08-31T04:28:45.614Z,73.66
2023-08-31T04:31:12.634Z,73.36
2023-08-31T04:33:40.587Z,72.94
2023-08-31T04:36:07.439Z,72.69
2023-08-31T04:38:35.628Z,72.74
2023-08-31T04:41:02.670Z,72.70
2023-08-31T04:43:29.540Z,71.95
2023-08-31T04:45:56.717Z,71.28
2023-08-31T04:48:23.641Z,71.45
2023-08-31T04:50:50.555Z,70.84
2023-08-31T04:53:17.430Z,70.53
2023-08-31T04:55:44.295Z,69.91
2023-08-31T04:58:11.130Z,70.23
2023-08-31T05:00:37.930Z,69.93
2023-08-31T05:03:05.005Z,69.40
2023-08-31T05:05:33.321Z,69.15
2023-08-31T05:08:00.874Z,69.20
2023-08-31T05:10:27.673Z,69.01
2023-08-31T05:12:54.667Z,68.61
2023-08-31T05:15:21.499Z,68.35
2023-08-31T05:17:49.690Z,68.04
2023-08-31T05:20:16.645Z,67.33
2023-08-31T05:22:43.366Z,67.32
2023-08-31T05:25:10.133Z,67.03
2023-08-31T05:27:36.865Z,67.01
2023-08-31T05:30:04.024Z,66.94
2023-08-31T05:32:30.997Z,66.66
2023-08-31T05:34:59.402Z,66.07
2023-08-31T05:37:26.534Z,66.19
2023-08-31T05:39:53.395Z,65.73
2023-08-31T05:42:20.266Z,65.85
2023-08-31T05:44:47.054Z,65.93
2023-08-31T05:47:13.932Z,65.13
2023-08-31T05:49:40.693Z,64.94
2023-08-31T05:52:07.445Z,64.92
2023-08-31T05:54:34.284Z,64.57
2023-08-31T05:57:01.025Z,63.47
2023-08-31T05:59:27.848Z,62.24
2023-08-31T06:01:56.256Z,61.65
2023-08-31T06:04:23.347Z,61.70
2023-08-31T06:06:53.046Z,60.54
2023-08-31T06:09:19.928Z,60.38
2023-08-31T06:11:46.825Z,60.10
2023-08-31T06:14:13.563Z,60.03
2023-08-31T06:16:40.405Z,60.06
2023-08-31T06:19:07.291Z,60.52
2023-08-31T06:21:34.061Z,62.15
2023-08-31T06:24:00.831Z,58.39
2023-08-31T06:26:27.829Z,53.98
2023-08-31T06:28:54.655Z,50.94
2023-08-31T06:31:21.450Z,48.53
2023-08-31T06:33:48.190Z,47.49
2023-08-31T06:36:15.018Z,47.04
2023-08-31T06:38:41.949Z,46.40
2023-08-31T06:41:10.175Z,46.41
2023-08-31T06:43:36.999Z,45.85
2023-08-31T06:46:18.437Z,45.48
2023-08-31T06:48:50.512Z,44.79
2023-08-31T06:51:17.373Z,44.53
2023-08-31T06:53:44.800Z,44.12
2023-08-31T06:56:11.658Z,43.77
2023-08-31T06:58:38.381Z,43.84
2023-08-31T07:01:08.094Z,43.96
2023-08-31T07:03:35.107Z,43.34
2023-08-31T07:06:02.214Z,43.21
2023-08-31T07:08:29.015Z,43.48
2023-08-31T07:10:55.998Z,43.09
2023-08-31T07:13:22.827Z,43.02
2023-08-31T07:15:51.279Z,43.52
2023-08-31T07:18:18.172Z,43.13
2023-08-31T07:20:46.962Z,43.45
2023-08-31T07:23:13.961Z,42.64
2023-08-31T07:25:41.126Z,43.30
2023-08-31T07:28:08.081Z,42.67
2023-08-31T07:30:34.955Z,42.84
2023-08-31T07:33:13.876Z,42.47
2023-08-31T07:35:51.273Z,42.03
2023-08-31T07:38:18.035Z,43.01
2023-08-31T07:40:44.787Z,42.67
2023-08-31T07:43:12.745Z,42.08
2023-08-31T07:45:39.897Z,41.85
2023-08-31T07:48:07.954Z,41.48
2023-08-31T07:50:35.542Z,41.70
2023-08-31T07:53:02.306Z,42.05
2023-08-31T07:55:29.074Z,41.74
2023-08-31T07:57:55.856Z,41.72
2023-08-31T08:00:22.685Z,41.77
2023-08-31T08:02:50.882Z,41.30
2023-08-31T08:05:18.963Z,42.35
2023-08-31T08:07:47.046Z,41.85
2023-08-31T08:10:15.655Z,40.95
2023-08-31T08:12:47.374Z,41.00
2023-08-31T08:15:14.840Z,41.16
2023-08-31T08:17:41.777Z,41.13
2023-08-31T08:20:09.235Z,40.84
2023-08-31T08:22:37.211Z,40.91
2023-08-31T08:25:04.488Z,40.62
2023-08-31T08:27:32.832Z,41.70
2023-08-31T08:30:00.470Z,41.54
2023-08-31T08:32:27.264Z,40.71
2023-08-31T08:34:54.209Z,40.32
2023-08-31T08:37:21.088Z,40.93
2023-08-31T08:39:52.505Z,38.90
2023-08-31T08:42:21.621Z,37.71
2023-08-31T08:44:51.306Z,39.16
2023-08-31T08:47:19.124Z,38.80
2023-08-31T08:49:46.276Z,38.78
2023-08-31T08:52:13.998Z,38.49
2023-08-31T08:54:41.337Z,38.79
2023-08-31T08:57:08.170Z,38.90
2023-08-31T08:59:35.080Z,39.50
2023-08-31T09:02:01.978Z,39.56
2023-08-31T09:04:31.720Z,38.38
2023-08-31T09:06:58.508Z,38.47
2023-08-31T09:09:25.286Z,38.75
2023-08-31T09:11:52.471Z,38.53
2023-08-31T09:14:20.562Z,38.70
2023-08-31T09:16:48.971Z,39.43
2023-08-31T09:19:28.382Z,36.92
2023-08-31T09:21:57.102Z,36.71
2023-08-31T09:24:24.475Z,36.11
2023-08-31T09:26:56.608Z,36.67
2023-08-31T09:29:23.637Z,36.49
2023-08-31T09:31:50.419Z,36.71
2023-08-31T09:34:18.213Z,36.67
2023-08-31T09:36:45.742Z,35.94
2023-08-31T09:39:15.273Z,36.02
2023-08-31T09:41:55.888Z,35.94
2023-08-31T09:44:23.078Z,35.56
2023-08-31T09:46:49.989Z,36.11
2023-08-31T09:49:18.404Z,35.33
2023-08-31T09:51:49.914Z,36.09
2023-08-31T09:54:19.552Z,35.72
2023-08-31T09:56:47.738Z,35.31
2023-08-31T09:59:18.418Z,35.65
2023-08-31T10:01:46.710Z,35.85
2023-08-31T10:04:13.804Z,35.26
2023-08-31T10:06:41.389Z,37.41
2023-08-31T10:09:12.916Z,38.48
2023-08-31T10:11:41.268Z,38.37
2023-08-31T10:14:09.115Z,39.36
2023-08-31T10:16:36.056Z,38.69
2023-08-31T10:19:03.980Z,40.19
2023-08-31T10:21:31.871Z,41.15
2023-08-31T10:23:58.742Z,41.04
2023-08-31T10:26:32.698Z,40.11
2023-08-31T10:29:00.647Z,40.63
2023-08-31T10:31:32.516Z,40.21
2023-08-31T10:34:11.102Z,40.91
2023-08-31T10:36:51.129Z,40.07
2023-08-31T10:39:22.310Z,40.21
2023-08-31T10:41:58.432Z,39.32
2023-08-31T10:44:26.671Z,39.89
2023-08-31T10:46:54.574Z,38.96
2023-08-31T10:49:24.822Z,39.19
2023-08-31T10:52:01.494Z,39.25
2023-08-31T10:54:35.824Z,38.19
2023-08-31T10:57:09.546Z,38.22
2023-08-31T10:59:53.559Z,36.44
2023-08-31T11:02:41.601Z,35.97
2023-08-31T11:05:18.817Z,35.21
2023-08-31T11:07:50.984Z,35.07
2023-08-31T11:10:22.093Z,34.22
2023-08-31T11:12:50.973Z,34.96
2023-08-31T11:15:23.697Z,35.31
2023-08-31T11:17:55.122Z,34.73
2023-08-31T11:20:23.829Z,33.61
2023-08-31T11:22:52.277Z,32.56
2023-08-31T11:25:19.353Z,30.90
2023-08-31T11:27:56.450Z,31.30
2023-08-31T11:30:23.765Z,32.03
2023-08-31T11:32:52.783Z,32.06
2023-08-31T11:35:20.531Z,31.91
2023-08-31T11:37:51.624Z,32.52
2023-08-31T11:40:18.608Z,32.42
2023-08-31T11:42:45.620Z,32.25
2023-08-31T11:45:13.716Z,31.49
2023-08-31T11:47:49.429Z,31.40
2023-08-31T11:50:17.287Z,31.46
2023-08-31T11:52:44.329Z,30.91
2023-08-31T11:55:13.160Z,28.43
2023-08-31T11:57:39.921Z,24.03
2023-08-31T12:00:07.435Z,23.25
2023-08-31T12:02:37.430Z,21.09
2023-08-31T12:05:06.810Z,19.93
2023-08-31T12:07:41.371Z,18.67
2023-08-31T12:10:09.092Z,17.96
2023-08-31T12:12:36.014Z,16.79
2023-08-31T12:15:04.938Z,16.64
2023-08-31T12:17:31.925Z,17.53
2023-08-31T12:20:06.213Z,18.40
2023-08-31T12:22:33.147Z,19.53
2023-08-31T12:24:59.997Z,17.51
2023-08-31T12:27:28.224Z,17.06
2023-08-31T12:29:55.348Z,15.56
2023-08-31T12:32:22.425Z,15.91
2023-08-31T12:34:49.408Z,15.02
2023-08-31T12:37:16.824Z,14.89
2023-08-31T12:39:46.868Z,14.88
2023-08-31T12:42:23.339Z,15.17
2023-08-31T12:44:50.836Z,15.09
2023-08-31T12:47:17.758Z,13.96
2023-08-31T12:49:44.561Z,13.63
2023-08-31T12:52:11.330Z,14.49
2023-08-31T12:54:38.159Z,16.03
2023-08-31T12:57:06.284Z,16.23
2023-08-31T12:59:33.425Z,14.63
2023-08-31T13:02:00.940Z,14.48
2023-08-31T13:04:27.722Z,14.28
2023-08-31T13:06:55.710Z,14.91
2023-08-31T13:09:22.490Z,16.02
2023-08-31T13:11:49.306Z,16.65
2023-08-31T13:14:16.135Z,15.41
2023-08-31T13:16:42.983Z,16.65
2023-08-31T13:19:09.811Z,17.62
2023-08-31T13:21:36.680Z,18.05
2023-08-31T13:24:03.626Z,19.05
2023-08-31T13:26:30.441Z,20.96
2023-08-31T13:28:57.279Z,21.16
2023-08-31T13:31:24.223Z,18.69
2023-08-31T13:33:51.027Z,16.95
2023-08-31T13:36:17.834Z,15.92
2023-08-31T13:38:44.628Z,16.02
2023-08-31T13:41:11.513Z,16.17
2023-08-31T13:43:38.298Z,17.62
2023-08-31T13:46:05.585Z,18.99
2023-08-31T13:48:33.656Z,18.54
2023-08-31T13:51:00.700Z,18.31
2023-08-31T13:53:27.655Z,16.82
2023-08-31T13:55:54.599Z,15.79
2023-08-31T13:58:21.422Z,15.12
2023-08-31T14:00:48.506Z,14.58
2023-08-31T14:03:15.542Z,15.46
2023-08-31T14:05:42.380Z,17.07
2023-08-31T14:08:09.381Z,17.14
2023-08-31T14:10:40.633Z,17.72
2023-08-31T14:13:08.027Z,17.05
2023-08-31T14:15:34.755Z,16.29
2023-08-31T14:18:01.665Z,16.20
2023-08-31T14:20:28.612Z,17.08
2023-08-31T14:22:55.450Z,18.58
2023-08-31T14:25:25.196Z,20.14
2023-08-31T14:27:52.018Z,21.39
2023-08-31T14:30:18.767Z,20.12
2023-08-31T14:32:46.050Z,20.38
2023-08-31T14:35:12.922Z,20.13
2023-08-31T14:37:39.891Z,19.75
2023-08-31T14:40:08.351Z,19.24
2023-08-31T14:42:35.402Z,18.44
2023-08-31T14:45:02.770Z,18.08
2023-08-31T14:47:29.733Z,17.72
2023-08-31T14:49:56.721Z,17.23
2023-08-31T14:52:23.757Z,16.52
2023-08-31T14:54:50.676Z,16.27
2023-08-31T14:57:17.643Z,16.24
2023-08-31T14:59:44.404Z,16.70
2023-08-31T15:02:11.265Z,17.49
2023-08-31T15:04:38.107Z,19.06
2023-08-31T15:07:05.946Z,20.43
2023-08-31T15:09:33.086Z,21.39
2023-08-31T15:11:59.936Z,22.80
2023-08-31T15:14:26.650Z,23.99
2023-08-31T15:16:53.396Z,25.13
2023-08-31T15:19:20.162Z,26.02
2023-08-31T15:21:46.968Z,26.73
2023-08-31T15:24:14.205Z,27.64
2023-08-31T15:26:41.107Z,27.82
2023-08-31T15:29:07.965Z,28.60
2023-08-31T15:31:34.774Z,29.29
2023-08-31T15:34:01.552Z,30.24
2023-08-31T15:36:28.358Z,30.75
2023-08-31T15:38:55.146Z,31.36
2023-08-31T15:41:22.083Z,31.16
2023-08-31T15:43:49.028Z,31.67
2023-08-31T15:46:17.082Z,32.45
2023-08-31T15:48:43.945Z,32.40
2023-08-31T15:51:11.323Z,32.32
2023-08-31T15:53:38.193Z,32.98
2023-08-31T15:56:05.821Z,33.06
2023-08-31T15:58:32.683Z,33.32
2023-08-31T16:01:02.773Z,32.85
2023-08-31T16:03:34.197Z,33.55
2023-08-31T16:06:01.369Z,33.43
2023-08-31T16:08:28.788Z,33.57
2023-08-31T16:10:55.779Z,34.88
2023-08-31T16:13:22.785Z,34.11
2023-08-31T16:15:50.628Z,34.54
2023-08-31T16:18:17.792Z,34.64
2023-08-31T16:20:45.042Z,34.68
2023-08-31T16:23:12.316Z,35.30
2023-08-31T16:25:39.204Z,35.67
2023-08-31T16:28:06.181Z,36.13
2023-08-31T16:30:33.248Z,36.21
2023-08-31T16:33:00.187Z,35.87
2023-08-31T16:35:27.050Z,36.08
2023-08-31T16:37:53.855Z,35.90
2023-08-31T16:40:21.713Z,35.89
2023-08-31T16:42:48.599Z,37.19
2023-08-31T16:45:15.503Z,37.82
2023-08-31T16:47:42.805Z,37.95
2023-08-31T16:50:10.863Z,38.14
2023-08-31T16:52:37.729Z,38.06
2023-08-31T16:55:05.295Z,37.97
2023-08-31T16:57:32.139Z,38.32
2023-08-31T16:59:59.108Z,38.15
2023-08-31T17:02:26.032Z,39.19
2023-08-31T17:04:53.830Z,39.11
2023-08-31T17:07:20.927Z,39.59
2023-08-31T17:09:47.944Z,40.01
2023-08-31T17:12:16.144Z,40.13
2023-08-31T17:14:46.215Z,39.71
2023-08-31T17:17:13.116Z,40.67
2023-08-31T17:19:40.047Z,41.63
2023-08-31T17:22:06.973Z,42.86
2023-08-31T17:24:33.772Z,43.41
2023-08-31T17:27:00.897Z,43.02
2023-08-31T17:29:27.875Z,44.05
2023-08-31T17:31:54.705Z,44.86
2023-08-31T17:34:21.630Z,45.88
2023-08-31T17:36:48.463Z,46.73
2023-08-31T17:39:15.436Z,46.93
2023-08-31T17:41:42.437Z,46.92
2023-08-31T17:44:09.718Z,47.25
2023-08-31T17:46:37.054Z,47.23
2023-08-31T17:49:04.622Z,48.59
2023-08-31T17:51:31.920Z,47.93
2023-08-31T17:54:01.878Z,49.42
2023-08-31T17:56:29.311Z,49.94
2023-08-31T17:58:57.405Z,49.40
2023-08-31T18:01:25.306Z,49.64
2023-08-31T18:03:52.937Z,49.56
2023-08-31T18:06:20.214Z,49.22
2023-08-31T18:08:48.374Z,50.67
2023-08-31T18:11:16.275Z,51.08
2023-08-31T18:13:43.939Z,50.66
2023-08-31T18:16:12.786Z,52.36
2023-08-31T18:18:40.682Z,52.21
2023-08-31T18:21:07.908Z,52.36
2023-08-31T18:23:36.285Z,52.70
2023-08-31T18:26:04.332Z,52.64
2023-08-31T18:28:31.566Z,53.37
2023-08-31T18:31:04.169Z,54.14
2023-08-31T18:33:32.382Z,53.93
2023-08-31T18:36:02.566Z,54.16
2023-08-31T18:38:31.268Z,54.45
2023-08-31T18:40:58.741Z,54.82
2023-08-31T18:43:26.424Z,55.52
2023-08-31T18:45:55.816Z,55.47
2023-08-31T18:48:23.274Z,55.26
2023-08-31T18:51:01.140Z,56.08
2023-08-31T18:53:29.649Z,55.56
2023-08-31T18:56:02.127Z,56.06
2023-08-31T18:58:30.310Z,56.82
2023-08-31T19:01:01.020Z,56.88
2023-08-31T19:03:29.988Z,56.91
2023-08-31T19:05:57.629Z,57.98
2023-08-31T19:08:25.012Z,58.66
2023-08-31T19:10:52.337Z,57.72
2023-08-31T19:13:19.756Z,57.32
2023-08-31T19:15:48.140Z,57.63
2023-08-31T19:18:15.734Z,58.08
2023-08-31T19:20:43.713Z,58.11
2023-08-31T19:23:11.117Z,58.74
2023-08-31T19:25:40.751Z,59.37
2023-08-31T19:28:08.239Z,59.04
2023-08-31T19:30:37.294Z,57.86
2023-08-31T19:33:05.088Z,58.44
2023-08-31T19:35:55.015Z,58.05
2023-08-31T19:38:20.912Z,58.16
2023-08-31T19:40:49.290Z,59.25
2023-08-31T19:43:19.959Z,59.29
2023-08-31T19:45:47.990Z,59.65
2023-08-31T19:48:15.836Z,59.67
2023-08-31T19:50:43.506Z,59.66
2023-08-31T19:53:11.016Z,60.99
2023-08-31T19:55:38.805Z,60.22
2023-08-31T19:58:06.316Z,60.13
2023-08-31T20:00:33.738Z,60.28
2023-08-31T20:03:01.122Z,60.31
2023-08-31T20:05:29.008Z,60.70
2023-08-31T20:07:56.413Z,61.13
2023-08-31T20:10:23.805Z,61.22
2023-08-31T20:12:51.214Z,61.19
2023-08-31T20:15:18.427Z,60.85
2023-08-31T20:17:45.619Z,61.58
2023-08-31T20:20:14.312Z,61.15
2023-08-31T20:22:42.267Z,61.84
2023-08-31T20:25:10.318Z,61.00
2023-08-31T20:27:38.180Z,61.38
2023-08-31T20:30:06.347Z,62.04
2023-08-31T20:32:35.051Z,62.41
2023-08-31T20:35:02.132Z,62.48
2023-08-31T20:37:28.961Z,61.87
2023-08-31T20:39:55.677Z,62.09
2023-08-31T20:42:22.467Z,62.53
2023-08-31T20:44:49.281Z,62.93
2023-08-31T20:47:20.423Z,61.68
2023-08-31T20:49:47.265Z,62.81
2023-08-31T20:52:14.648Z,64.40
2023-08-31T20:54:41.478Z,63.26
2023-08-31T20:57:08.218Z,63.76
2023-08-31T20:59:34.971Z,64.09
2023-08-31T21:02:02.174Z,63.92
2023-08-31T21:04:29.014Z,64.58
2023-08-31T21:06:55.757Z,64.30
2023-08-31T21:09:22.916Z,64.40
2023-08-31T21:11:49.996Z,64.65
2023-08-31T21:14:16.785Z,64.93
2023-08-31T21:16:43.618Z,63.88
2023-08-31T21:19:12.334Z,64.59
2023-08-31T21:21:39.087Z,64.49
2023-08-31T21:24:06.039Z,64.32
2023-08-31T21:26:36.108Z,63.99
2023-08-31T21:29:02.864Z,63.88
2023-08-31T21:31:29.669Z,63.83
2023-08-31T21:33:56.513Z,63.60
2023-08-31T21:36:23.477Z,64.33
2023-08-31T21:38:50.322Z,63.80
2023-08-31T21:41:17.022Z,64.00
2023-08-31T21:43:43.829Z,63.96
2023-08-31T21:46:10.645Z,63.80
2023-08-31T21:48:37.458Z,64.09
2023-08-31T21:51:04.467Z,63.60
2023-08-31T21:53:31.291Z,63.39
2023-08-31T21:56:02.565Z,64.21
2023-08-31T21:58:29.319Z,63.94
2023-08-31T22:00:56.168Z,63.84
2023-08-31T22:03:23.220Z,64.46
2023-08-31T22:05:49.998Z,64.28
2023-08-31T22:08:17.074Z,64.32
2023-08-31T22:10:44.042Z,63.69
2023-08-31T22:13:10.830Z,63.74
2023-08-31T22:15:37.687Z,64.00
2023-08-31T22:18:05.001Z,63.70
2023-08-31T22:20:32.064Z,63.41
2023-08-31T22:23:00.414Z,64.00
2023-08-31T22:25:28.470Z,64.10
2023-08-31T22:27:58.084Z,64.00
2023-08-31T22:30:26.136Z,63.53
2023-08-31T22:32:54.079Z,63.60
2023-08-31T22:35:20.901Z,62.82
2023-08-31T22:37:51.368Z,63.08
2023-08-31T22:40:18.118Z,62.99
2023-08-31T22:42:45.405Z,63.63
2023-08-31T22:45:12.673Z,63.80
2023-08-31T22:47:39.950Z,63.91
2023-08-31T22:50:07.382Z,63.37
2023-08-31T22:52:34.178Z,62.90
2023-08-31T22:55:01.167Z,63.26
2023-08-31T22:57:28.251Z,62.94
2023-08-31T22:59:55.042Z,62.20
2023-08-31T23:02:21.986Z,63.40
2023-08-31T23:04:49.903Z,63.52
2023-08-31T23:07:16.802Z,63.24
2023-08-31T23:09:43.754Z,63.18
2023-08-31T23:12:10.484Z,63.25
2023-08-31T23:14:37.371Z,62.92
2023-08-31T23:17:04.305Z,62.85
2023-08-31T23:19:31.075Z,62.61
2023-08-31T23:21:57.921Z,63.07
2023-08-31T23:24:24.728Z,62.51
2023-08-31T23:26:51.491Z,60.68
2023-08-31T23:29:18.633Z,60.48
2023-08-31T23:31:46.655Z,60.29
2023-08-31T23:34:13.711Z,58.98
2023-08-31T23:36:40.581Z,59.08
2023-08-31T23:39:10.444Z,58.17
2023-08-31T23:41:38.201Z,58.93
2023-08-31T23:44:05.436Z,57.96
2023-08-31T23:46:32.434Z,58.38
2023-08-31T23:48:59.215Z,58.25
2023-08-31T23:51:27.992Z,58.11
2023-08-31T23:53:55.830Z,57.76
2023-08-31T23:56:22.878Z,57.10
2023-08-31T23:58:49.805Z,57.61
